createdAt,value
2023-05-21T00:00:17.613Z,23.49
2023-05-21T00:02:44.298Z,23.58
2023-05-21T00:05:13.683Z,23.59
2023-05-21T00:07:41.242Z,23.57
2023-05-21T00:10:07.862Z,23.62
2023-05-21T00:12:34.440Z,23.59
2023-05-21T00:15:01.044Z,23.61
2023-05-21T00:17:27.676Z,23.57
2023-05-21T00:19:54.311Z,23.61
2023-05-21T00:22:20.888Z,23.53
2023-05-21T00:24:47.462Z,23.50
2023-05-21T00:27:13.989Z,23.50
2023-05-21T00:29:41.348Z,23.52
2023-05-21T00:32:09.514Z,23.51
2023-05-21T00:34:36.140Z,23.54
2023-05-21T00:37:02.698Z,23.49
2023-05-21T00:39:29.239Z,23.55
2023-05-21T00:41:55.764Z,23.54
2023-05-21T00:44:22.359Z,23.52
2023-05-21T00:46:48.975Z,23.53
2023-05-21T00:49:15.529Z,23.53
2023-05-21T00:51:42.110Z,23.54
2023-05-21T00:54:08.633Z,23.59
2023-05-21T00:56:35.206Z,23.54
2023-05-21T00:59:01.833Z,23.56
2023-05-21T01:01:28.400Z,23.58
2023-05-21T01:03:55.026Z,23.53
2023-05-21T01:06:21.580Z,23.53
2023-05-21T01:08:48.096Z,23.53
2023-05-21T01:11:14.603Z,23.50
2023-05-21T01:13:41.055Z,23.51
2023-05-21T01:16:07.568Z,23.53
2023-05-21T01:18:34.042Z,23.52
2023-05-21T01:21:00.479Z,23.50
2023-05-21T01:23:26.993Z,23.52
2023-05-21T01:25:53.533Z,23.56
2023-05-21T01:28:20.089Z,23.51
2023-05-21T01:30:46.615Z,23.57
2023-05-21T01:33:13.516Z,23.54
2023-05-21T01:35:40.541Z,23.63
2023-05-21T01:38:07.093Z,23.60
2023-05-21T01:40:33.659Z,23.56
2023-05-21T01:43:00.276Z,23.58
2023-05-21T01:45:26.792Z,23.55
2023-05-21T01:47:53.317Z,23.53
2023-05-21T01:50:19.846Z,23.53
2023-05-21T01:52:46.311Z,23.53
2023-05-21T01:55:12.865Z,23.45
2023-05-21T01:57:39.379Z,23.58
2023-05-21T02:00:05.973Z,23.50
2023-05-21T02:02:32.559Z,23.54
2023-05-21T02:04:59.112Z,23.51
2023-05-21T02:07:25.624Z,23.56
2023-05-21T02:09:52.132Z,23.62
2023-05-21T02:12:18.681Z,23.61
2023-05-21T02:14:45.199Z,23.55
2023-05-21T02:17:11.730Z,23.58
2023-05-21T02:19:38.238Z,23.49
2023-05-21T02:22:04.819Z,23.46
2023-05-21T02:24:31.411Z,23.47
2023-05-21T02:26:57.998Z,23.51
2023-05-21T02:29:24.572Z,23.55
2023-05-21T02:31:51.099Z,23.50
2023-05-21T02:34:17.972Z,23.50
2023-05-21T02:36:44.597Z,23.46
2023-05-21T02:39:11.144Z,23.50
2023-05-21T02:41:37.708Z,23.49
2023-05-21T02:44:04.311Z,23.47
2023-05-21T02:46:30.960Z,23.47
2023-05-21T02:48:57.568Z,23.49
2023-05-21T02:51:24.140Z,23.48
2023-05-21T02:53:50.717Z,23.60
2023-05-21T02:56:20.393Z,23.74
2023-05-21T02:58:47.007Z,23.63
2023-05-21T03:01:13.575Z,23.56
2023-05-21T03:03:40.199Z,23.52
2023-05-21T03:06:06.709Z,23.57
2023-05-21T03:08:33.197Z,23.52
2023-05-21T03:10:59.706Z,23.52
2023-05-21T03:13:26.288Z,23.60
2023-05-21T03:15:52.835Z,23.52
2023-05-21T03:18:19.363Z,23.58
2023-05-21T03:20:45.942Z,23.45
2023-05-21T03:23:14.223Z,23.46
2023-05-21T03:25:42.833Z,23.52
2023-05-21T03:28:09.397Z,23.51
2023-05-21T03:30:36.007Z,23.57
2023-05-21T03:33:02.617Z,23.60
2023-05-21T03:35:29.214Z,23.56
2023-05-21T03:37:55.741Z,23.47
2023-05-21T03:40:22.198Z,23.47
2023-05-21T03:42:48.689Z,23.49
2023-05-21T03:45:15.212Z,23.40
2023-05-21T03:47:41.858Z,23.47
2023-05-21T03:50:08.607Z,23.56
2023-05-21T03:52:35.159Z,23.57
2023-05-21T03:55:01.725Z,23.45
2023-05-21T03:57:28.247Z,23.47
2023-05-21T03:59:54.762Z,23.54
2023-05-21T04:02:21.407Z,23.65
2023-05-21T04:04:48.182Z,23.61
2023-05-21T04:07:14.888Z,23.61
2023-05-21T04:09:41.480Z,23.55
2023-05-21T04:12:08.021Z,23.53
2023-05-21T04:14:34.561Z,23.58
2023-05-21T04:17:01.115Z,23.52
2023-05-21T04:19:27.820Z,23.60
2023-05-21T04:21:54.392Z,23.60
2023-05-21T04:24:20.822Z,23.63
2023-05-21T04:26:47.324Z,23.62
2023-05-21T04:29:13.886Z,23.69
2023-05-21T04:31:40.440Z,23.69
2023-05-21T04:34:07.064Z,23.59
2023-05-21T04:36:33.651Z,23.62
2023-05-21T04:39:00.170Z,23.61
2023-05-21T04:41:26.693Z,23.73
2023-05-21T04:43:56.072Z,23.68
2023-05-21T04:46:22.619Z,23.76
2023-05-21T04:48:49.260Z,23.68
2023-05-21T04:51:15.823Z,23.65
2023-05-21T04:53:42.431Z,23.69
2023-05-21T04:56:09.020Z,23.62
2023-05-21T04:58:35.627Z,23.66
2023-05-21T05:01:02.227Z,23.75
2023-05-21T05:03:28.960Z,23.68
2023-05-21T05:05:55.578Z,23.64
2023-05-21T05:08:22.098Z,23.60
2023-05-21T05:10:48.682Z,23.61
2023-05-21T05:13:15.264Z,23.67
2023-05-21T05:15:41.780Z,23.75
2023-05-21T05:18:08.359Z,23.77
2023-05-21T05:20:35.021Z,23.65
2023-05-21T05:23:01.544Z,23.91
2023-05-21T05:25:28.073Z,23.95
2023-05-21T05:27:54.530Z,23.91
2023-05-21T05:30:21.099Z,23.89
2023-05-21T05:32:47.736Z,23.81
2023-05-21T05:35:14.306Z,23.86
2023-05-21T05:37:41.266Z,23.86
2023-05-21T05:40:07.889Z,24.06
2023-05-21T05:42:34.438Z,23.81
2023-05-21T05:45:00.957Z,23.89
2023-05-21T05:47:27.529Z,23.70
2023-05-21T05:49:54.065Z,23.71
2023-05-21T05:52:20.655Z,23.69
2023-05-21T05:54:47.304Z,23.71
2023-05-21T05:57:14.007Z,23.80
2023-05-21T05:59:40.555Z,23.73
2023-05-21T06:02:07.149Z,23.79
2023-05-21T06:04:33.730Z,23.96
2023-05-21T06:07:00.198Z,23.94
2023-05-21T06:09:26.653Z,24.14
2023-05-21T06:11:53.124Z,24.19
2023-05-21T06:14:19.581Z,24.13
2023-05-21T06:16:46.145Z,23.99
2023-05-21T06:19:12.820Z,24.01
2023-05-21T06:21:39.355Z,23.83
2023-05-21T06:24:05.923Z,23.71
2023-05-21T06:26:32.508Z,23.77
2023-05-21T06:28:59.129Z,23.85
2023-05-21T06:31:25.653Z,23.89
2023-05-21T06:33:52.344Z,23.87
2023-05-21T06:36:18.953Z,23.89
2023-05-21T06:38:45.447Z,23.89
2023-05-21T06:41:12.038Z,23.91
2023-05-21T06:43:38.723Z,23.83
2023-05-21T06:46:05.290Z,23.83
2023-05-21T06:48:31.858Z,23.79
2023-05-21T06:50:58.351Z,23.74
2023-05-21T06:53:24.851Z,23.73
2023-05-21T06:55:51.444Z,23.82
2023-05-21T06:58:18.040Z,23.77
2023-05-21T07:00:44.539Z,23.78
2023-05-21T07:03:11.183Z,23.80
2023-05-21T07:05:38.048Z,23.80
2023-05-21T07:08:04.969Z,23.98
2023-05-21T07:10:31.574Z,24.06
2023-05-21T07:12:58.079Z,23.91
2023-05-21T07:15:24.595Z,24.04
2023-05-21T07:17:51.276Z,23.95
2023-05-21T07:20:17.884Z,23.89
2023-05-21T07:22:44.495Z,23.89
2023-05-21T07:25:11.077Z,23.87
2023-05-21T07:27:37.722Z,23.79
2023-05-21T07:30:04.251Z,23.81
2023-05-21T07:32:30.774Z,23.87
2023-05-21T07:34:57.375Z,23.80
2023-05-21T07:37:23.909Z,23.82
2023-05-21T07:39:50.533Z,23.86
2023-05-21T07:42:17.145Z,24.15
2023-05-21T07:44:43.611Z,24.08
2023-05-21T07:47:10.122Z,24.15
2023-05-21T07:49:36.667Z,24.43
2023-05-21T07:52:03.401Z,24.50
2023-05-21T07:54:29.932Z,24.36
2023-05-21T07:56:56.567Z,24.44
2023-05-21T07:59:23.094Z,24.32
2023-05-21T08:01:49.710Z,24.39
2023-05-21T08:04:16.470Z,24.18
2023-05-21T08:06:43.076Z,24.39
2023-05-21T08:09:09.703Z,24.19
2023-05-21T08:11:36.178Z,24.03
2023-05-21T08:14:02.778Z,23.92
2023-05-21T08:16:29.338Z,23.87
2023-05-21T08:18:56.024Z,23.93
2023-05-21T08:21:22.693Z,23.93
2023-05-21T08:23:49.273Z,24.06
2023-05-21T08:26:15.832Z,24.11
2023-05-21T08:28:42.416Z,24.04
2023-05-21T08:31:09.009Z,24.02
2023-05-21T08:33:35.611Z,24.06
2023-05-21T08:36:02.181Z,24.17
2023-05-21T08:38:30.251Z,24.04
2023-05-21T08:40:57.100Z,24.08
2023-05-21T08:43:23.618Z,24.14
2023-05-21T08:45:50.180Z,24.17
2023-05-21T08:48:16.732Z,24.16
2023-05-21T08:50:43.188Z,24.16
2023-05-21T08:53:15.818Z,24.24
2023-05-21T08:55:51.665Z,24.34
2023-05-21T08:58:18.280Z,24.23
2023-05-21T09:00:44.856Z,24.23
2023-05-21T09:03:11.580Z,24.28
2023-05-21T09:05:38.352Z,24.08
2023-05-21T09:08:05.047Z,24.13
2023-05-21T09:10:31.561Z,24.15
2023-05-21T09:12:58.080Z,24.29
2023-05-21T09:15:24.554Z,24.37
2023-05-21T09:17:51.095Z,24.24
2023-05-21T09:20:17.595Z,24.37
2023-05-21T09:22:44.146Z,24.28
2023-05-21T09:25:10.673Z,24.42
2023-05-21T09:27:37.161Z,24.42
2023-05-21T09:30:03.738Z,24.36
2023-05-21T09:32:30.241Z,24.47
2023-05-21T09:34:56.816Z,24.47
2023-05-21T09:37:27.445Z,24.34
2023-05-21T09:39:54.359Z,24.42
2023-05-21T09:42:20.936Z,24.62
2023-05-21T09:44:47.405Z,24.52
2023-05-21T09:47:13.944Z,24.54
2023-05-21T09:49:40.484Z,24.56
2023-05-21T09:52:06.954Z,24.43
2023-05-21T09:54:33.443Z,24.57
2023-05-21T09:56:59.892Z,24.51
2023-05-21T09:59:26.416Z,24.45
2023-05-21T10:01:53.109Z,24.60
2023-05-21T10:04:19.906Z,24.54
2023-05-21T10:06:47.612Z,24.56
2023-05-21T10:09:14.088Z,24.62
2023-05-21T10:11:40.592Z,24.66
2023-05-21T10:14:07.144Z,24.35
2023-05-21T10:16:33.721Z,24.13
2023-05-21T10:19:00.400Z,24.41
2023-05-21T10:21:26.962Z,24.25
2023-05-21T10:23:53.499Z,24.36
2023-05-21T10:26:20.089Z,24.42
2023-05-21T10:28:46.657Z,24.27
2023-05-21T10:31:13.155Z,24.12
2023-05-21T10:33:39.738Z,24.21
2023-05-21T10:36:06.301Z,24.24
2023-05-21T10:38:32.927Z,24.48
2023-05-21T10:40:59.480Z,24.56
2023-05-21T10:43:26.003Z,24.30
2023-05-21T10:45:52.495Z,24.54
2023-05-21T10:48:21.983Z,24.73
2023-05-21T10:50:48.481Z,24.78
2023-05-21T10:53:14.990Z,24.81
2023-05-21T10:55:41.608Z,24.96
2023-05-21T10:58:08.341Z,25.12
2023-05-21T11:00:34.948Z,25.13
2023-05-21T11:03:01.637Z,25.08
2023-05-21T11:05:28.232Z,25.10
2023-05-21T11:07:54.748Z,25.07
2023-05-21T11:10:21.255Z,24.93
2023-05-21T11:12:47.789Z,24.95
2023-05-21T11:15:14.332Z,24.88
2023-05-21T11:17:40.896Z,24.90
2023-05-21T11:20:07.489Z,24.97
2023-05-21T11:22:33.957Z,24.99
2023-05-21T11:25:00.515Z,24.96
2023-05-21T11:27:27.059Z,24.87
2023-05-21T11:29:53.620Z,24.87
2023-05-21T11:32:20.204Z,24.92
2023-05-21T11:34:49.892Z,24.84
2023-05-21T11:37:16.445Z,24.93
2023-05-21T11:39:42.941Z,24.80
2023-05-21T11:42:09.407Z,24.86
2023-05-21T11:44:35.947Z,24.68
2023-05-21T11:47:02.458Z,24.87
2023-05-21T11:49:28.985Z,24.86
2023-05-21T11:51:55.529Z,24.92
2023-05-21T11:54:22.000Z,24.86
2023-05-21T11:56:48.480Z,24.94
2023-05-21T11:59:16.685Z,24.98
2023-05-21T12:01:45.067Z,25.08
2023-05-21T12:04:11.629Z,25.01
2023-05-21T12:06:38.201Z,25.04
2023-05-21T12:09:04.669Z,25.06
2023-05-21T12:11:31.147Z,24.97
2023-05-21T12:13:57.715Z,24.92
2023-05-21T12:16:24.311Z,24.96
2023-05-21T12:18:50.942Z,25.01
2023-05-21T12:21:17.477Z,25.07
2023-05-21T12:23:44.114Z,25.10
2023-05-21T12:26:10.752Z,25.11
2023-05-21T12:28:37.376Z,25.10
2023-05-21T12:31:03.964Z,25.05
2023-05-21T12:33:30.543Z,25.12
2023-05-21T12:35:57.208Z,25.07
2023-05-21T12:38:23.707Z,24.99
2023-05-21T12:40:50.224Z,24.96
2023-05-21T12:43:16.828Z,25.01
2023-05-21T12:45:43.445Z,24.95
2023-05-21T12:48:10.177Z,24.83
2023-05-21T12:50:37.001Z,24.73
2023-05-21T12:53:03.562Z,24.99
2023-05-21T12:55:30.119Z,24.85
2023-05-21T12:57:56.702Z,24.81
2023-05-21T13:00:23.207Z,24.90
2023-05-21T13:02:49.761Z,24.86
2023-05-21T13:05:16.570Z,24.94
2023-05-21T13:07:43.495Z,24.91
2023-05-21T13:10:10.093Z,24.82
2023-05-21T13:12:36.779Z,24.96
2023-05-21T13:15:03.356Z,24.86
2023-05-21T13:17:29.863Z,24.95
2023-05-21T13:19:56.418Z,25.01
2023-05-21T13:22:22.925Z,25.04
2023-05-21T13:24:49.459Z,25.02
2023-05-21T13:27:16.019Z,25.08
2023-05-21T13:29:42.606Z,25.14
2023-05-21T13:32:09.109Z,25.04
2023-05-21T13:34:35.643Z,25.10
2023-05-21T13:37:02.117Z,25.20
2023-05-21T13:39:28.687Z,25.16
2023-05-21T13:41:55.204Z,25.04
2023-05-21T13:44:21.721Z,25.15
2023-05-21T13:46:48.326Z,25.20
2023-05-21T13:49:14.920Z,25.26
2023-05-21T13:51:41.499Z,25.30
2023-05-21T13:54:08.081Z,25.24
2023-05-21T13:56:34.592Z,25.21
2023-05-21T13:59:01.061Z,25.28
2023-05-21T14:01:27.695Z,25.28
2023-05-21T14:03:54.303Z,25.50
2023-05-21T14:06:23.645Z,25.45
2023-05-21T14:08:50.133Z,25.57
2023-05-21T14:11:16.639Z,25.42
2023-05-21T14:13:43.194Z,25.48
2023-05-21T14:16:09.663Z,25.61
2023-05-21T14:18:36.405Z,25.66
2023-05-21T14:21:02.972Z,25.90
2023-05-21T14:23:29.540Z,25.71
2023-05-21T14:25:56.140Z,25.57
2023-05-21T14:28:22.650Z,25.78
2023-05-21T14:30:49.142Z,25.60
2023-05-21T14:33:15.771Z,25.70
2023-05-21T14:35:42.367Z,25.52
2023-05-21T14:38:08.919Z,25.72
2023-05-21T14:40:35.524Z,25.59
2023-05-21T14:43:02.113Z,25.58
2023-05-21T14:45:28.657Z,25.62
2023-05-21T14:47:55.235Z,25.68
2023-05-21T14:50:21.915Z,25.70
2023-05-21T14:52:48.425Z,25.76
2023-05-21T14:55:14.891Z,25.84
2023-05-21T14:57:41.357Z,25.96
2023-05-21T15:00:07.871Z,26.06
2023-05-21T15:02:34.423Z,26.09
2023-05-21T15:05:01.156Z,26.11
2023-05-21T15:07:27.701Z,26.15
2023-05-21T15:09:54.187Z,26.19
2023-05-21T15:12:20.716Z,26.25
2023-05-21T15:14:47.222Z,26.28
2023-05-21T15:17:13.765Z,26.35
2023-05-21T15:19:42.682Z,26.34
2023-05-21T15:22:09.283Z,26.39
2023-05-21T15:24:35.795Z,26.44
2023-05-21T15:27:02.262Z,26.56
2023-05-21T15:29:28.782Z,26.69
2023-05-21T15:31:55.306Z,26.71
2023-05-21T15:34:21.907Z,26.75
2023-05-21T15:36:48.508Z,26.96
2023-05-21T15:39:15.064Z,26.95
2023-05-21T15:41:41.644Z,27.17
2023-05-21T15:44:08.115Z,27.31
2023-05-21T15:46:34.746Z,27.32
2023-05-21T15:49:01.288Z,27.57
2023-05-21T15:51:27.849Z,27.67
2023-05-21T15:53:55.792Z,27.91
2023-05-21T15:56:22.380Z,27.92
2023-05-21T15:58:48.953Z,28.05
2023-05-21T16:01:15.502Z,28.39
2023-05-21T16:03:42.161Z,28.47
2023-05-21T16:06:08.770Z,28.58
2023-05-21T16:08:35.374Z,28.46
2023-05-21T16:11:01.879Z,28.47
2023-05-21T16:13:28.466Z,28.52
2023-05-21T16:15:55.131Z,28.41
2023-05-21T16:18:21.623Z,28.48
2023-05-21T16:20:48.143Z,28.42
2023-05-21T16:23:14.644Z,28.57
2023-05-21T16:25:41.105Z,28.78
2023-05-21T16:28:07.639Z,28.56
2023-05-21T16:30:34.181Z,28.54
2023-05-21T16:33:00.752Z,28.49
2023-05-21T16:35:27.349Z,27.93
2023-05-21T16:37:53.884Z,27.80
2023-05-21T16:40:20.429Z,27.51
2023-05-21T16:42:46.949Z,27.54
2023-05-21T16:45:13.626Z,27.34
2023-05-21T16:47:40.193Z,27.39
2023-05-21T16:50:09.609Z,27.43
2023-05-21T16:52:36.198Z,27.35
2023-05-21T16:55:02.719Z,27.13
2023-05-21T16:57:29.272Z,27.13
2023-05-21T16:59:55.889Z,26.99
2023-05-21T17:02:22.568Z,26.95
2023-05-21T17:04:49.126Z,26.89
2023-05-21T17:07:15.835Z,26.88
2023-05-21T17:09:42.390Z,26.68
2023-05-21T17:12:08.893Z,26.78
2023-05-21T17:14:36.651Z,26.70
2023-05-21T17:17:04.272Z,26.72
2023-05-21T17:19:30.990Z,26.66
2023-05-21T17:21:57.565Z,26.62
2023-05-21T17:24:24.116Z,26.59
2023-05-21T17:26:50.618Z,26.75
2023-05-21T17:29:17.091Z,26.47
2023-05-21T17:31:43.659Z,26.42
2023-05-21T17:34:10.263Z,26.27
2023-05-21T17:36:36.778Z,26.30
2023-05-21T17:39:03.324Z,26.36
2023-05-21T17:41:29.788Z,26.33
2023-05-21T17:43:56.276Z,26.16
2023-05-21T17:46:22.863Z,26.17
2023-05-21T17:48:49.364Z,26.17
2023-05-21T17:51:15.947Z,26.13
2023-05-21T17:53:42.436Z,26.18
2023-05-21T17:56:08.980Z,26.03
2023-05-21T17:58:35.476Z,26.09
2023-05-21T18:01:02.009Z,25.94
2023-05-21T18:03:28.597Z,25.81
2023-05-21T18:05:55.148Z,25.72
2023-05-21T18:08:23.823Z,25.74
2023-05-21T18:10:50.376Z,25.66
2023-05-21T18:13:16.985Z,25.66
2023-05-21T18:15:43.608Z,25.79
2023-05-21T18:18:10.240Z,25.62
2023-05-21T18:20:37.074Z,25.62
2023-05-21T18:23:03.831Z,25.65
2023-05-21T18:25:30.368Z,25.62
2023-05-21T18:27:56.938Z,25.57
2023-05-21T18:30:23.542Z,25.52
2023-05-21T18:32:50.178Z,25.63
2023-05-21T18:35:16.985Z,25.49
2023-05-21T18:37:43.666Z,25.54
2023-05-21T18:40:10.226Z,25.39
2023-05-21T18:42:37.985Z,25.38
2023-05-21T18:45:04.597Z,25.36
2023-05-21T18:47:31.128Z,25.37
2023-05-21T18:49:57.765Z,25.34
2023-05-21T18:52:24.405Z,25.32
2023-05-21T18:54:50.970Z,25.31
2023-05-21T18:57:17.477Z,25.30
2023-05-21T18:59:44.004Z,25.24
2023-05-21T19:02:10.800Z,25.15
2023-05-21T19:04:37.544Z,25.10
2023-05-21T19:07:04.191Z,25.08
2023-05-21T19:09:30.858Z,25.14
2023-05-21T19:11:57.465Z,25.29
2023-05-21T19:14:24.075Z,25.19
2023-05-21T19:16:50.649Z,25.14
2023-05-21T19:19:17.241Z,25.05
2023-05-21T19:21:43.842Z,25.03
2023-05-21T19:24:10.409Z,24.98
2023-05-21T19:26:37.003Z,25.02
2023-05-21T19:29:03.492Z,24.99
2023-05-21T19:31:30.081Z,24.99
2023-05-21T19:33:56.730Z,24.96
2023-05-21T19:36:23.388Z,24.99
2023-05-21T19:38:50.087Z,25.01
2023-05-21T19:41:16.761Z,24.97
2023-05-21T19:43:43.233Z,24.93
2023-05-21T19:46:09.866Z,24.95
2023-05-21T19:48:36.489Z,25.01
2023-05-21T19:51:02.994Z,25.05
2023-05-21T19:53:29.562Z,24.98
2023-05-21T19:55:56.054Z,25.04
2023-05-21T19:58:22.618Z,24.94
2023-05-21T20:00:49.197Z,24.98
2023-05-21T20:03:15.815Z,24.95
2023-05-21T20:05:42.452Z,24.98
2023-05-21T20:08:08.931Z,25.06
2023-05-21T20:10:35.397Z,25.05
2023-05-21T20:13:02.004Z,25.00
2023-05-21T20:15:28.548Z,24.95
2023-05-21T20:17:55.026Z,24.98
2023-05-21T20:20:21.586Z,24.98
2023-05-21T20:22:48.151Z,24.85
2023-05-21T20:25:14.665Z,24.72
2023-05-21T20:27:41.139Z,24.78
2023-05-21T20:30:07.750Z,24.91
2023-05-21T20:32:34.319Z,24.82
2023-05-21T20:35:03.419Z,24.73
2023-05-21T20:37:30.168Z,24.68
2023-05-21T20:39:56.743Z,24.57
2023-05-21T20:42:23.342Z,24.53
2023-05-21T20:44:49.809Z,24.56
2023-05-21T20:47:16.339Z,24.49
2023-05-21T20:49:42.902Z,24.53
2023-05-21T20:52:09.396Z,24.50
2023-05-21T20:54:35.900Z,24.61
2023-05-21T20:57:02.510Z,24.68
2023-05-21T20:59:29.023Z,24.60
2023-05-21T21:01:55.581Z,24.59
2023-05-21T21:04:22.342Z,24.64
2023-05-21T21:06:48.974Z,24.51
2023-05-21T21:09:15.526Z,24.59
2023-05-21T21:11:42.006Z,24.56
2023-05-21T21:14:08.554Z,24.57
2023-05-21T21:16:35.207Z,24.66
2023-05-21T21:19:01.857Z,24.58
2023-05-21T21:21:28.448Z,24.55
2023-05-21T21:23:54.992Z,24.45
2023-05-21T21:26:21.496Z,24.48
2023-05-21T21:28:47.958Z,24.49
2023-05-21T21:31:14.542Z,24.53
2023-05-21T21:33:41.106Z,24.47
2023-05-21T21:36:07.727Z,24.53
2023-05-21T21:38:34.294Z,24.53
2023-05-21T21:41:00.944Z,24.43
2023-05-21T21:43:27.547Z,24.40
2023-05-21T21:45:54.154Z,24.43
2023-05-21T21:48:20.779Z,24.39
2023-05-21T21:50:47.284Z,24.41
2023-05-21T21:53:13.828Z,24.51
2023-05-21T21:55:40.357Z,24.47
2023-05-21T21:58:07.025Z,24.41
2023-05-21T22:00:33.676Z,24.48
2023-05-21T22:03:00.399Z,24.51
2023-05-21T22:05:27.052Z,24.49
2023-05-21T22:07:53.650Z,24.43
2023-05-21T22:10:20.231Z,24.51
2023-05-21T22:12:46.784Z,24.62
2023-05-21T22:15:13.412Z,24.57
2023-05-21T22:17:40.093Z,24.42
2023-05-21T22:20:06.687Z,24.48
2023-05-21T22:22:33.348Z,24.47
2023-05-21T22:24:59.900Z,24.52
2023-05-21T22:27:26.497Z,24.57
2023-05-21T22:29:53.075Z,24.59
2023-05-21T22:32:19.726Z,24.61
2023-05-21T22:34:46.327Z,24.59
2023-05-21T22:37:12.920Z,24.53
2023-05-21T22:39:39.530Z,24.49
2023-05-21T22:42:06.089Z,24.54
2023-05-21T22:44:32.680Z,24.49
2023-05-21T22:46:59.320Z,24.51
2023-05-21T22:49:25.927Z,24.43
2023-05-21T22:51:52.526Z,24.53
2023-05-21T22:54:19.053Z,24.54
2023-05-21T22:56:45.660Z,24.65
2023-05-21T22:59:12.186Z,24.56
2023-05-21T23:01:38.783Z,24.53
2023-05-21T23:04:05.284Z,24.51
2023-05-21T23:06:31.862Z,24.69
2023-05-21T23:08:58.445Z,24.59
2023-05-21T23:11:25.084Z,24.59
2023-05-21T23:13:51.627Z,24.54
2023-05-21T23:16:18.276Z,24.47
2023-05-21T23:18:44.871Z,24.45
2023-05-21T23:21:11.466Z,24.64
2023-05-21T23:23:37.997Z,24.49
2023-05-21T23:26:04.464Z,24.61
2023-05-21T23:28:30.993Z,24.65
2023-05-21T23:30:57.643Z,24.65
2023-05-21T23:33:24.225Z,24.58
2023-05-21T23:35:50.798Z,24.64
2023-05-21T23:38:17.320Z,24.58
2023-05-21T23:40:43.877Z,24.54
2023-05-21T23:43:10.441Z,24.56
2023-05-21T23:45:37.112Z,24.48
2023-05-21T23:48:03.840Z,24.57
2023-05-21T23:50:30.450Z,24.52
2023-05-21T23:52:57.032Z,24.47
2023-05-21T23:55:23.614Z,24.57
2023-05-21T23:57:50.189Z,24.57
